Time;durP1;ratioP1;P1;durP2;ratioP2;P2;SDS_P1;SDS_P2;PMS_P1;PMS_P2;Temp;Humidity;BMP_temperature;BMP_pressure;BME280_temperature;BME280_humidity;BME280_pressure;Samples;Min_cycle;Max_cycle;Signal;HPM_P1;HPM_P2
2022/09/09 00:02:08;;;;;;;11.07;6.50;;;14.60;99.90;;;;;;4976202;28;20043;-75
2022/09/09 00:04:36;;;;;;;9.07;6.93;;;14.60;99.90;;;;;;4976923;28;20043;-74
2022/09/09 00:07:32;;;;;;;8.18;6.45;;;14.60;99.90;;;;;;4976469;28;20042;-74
2022/09/09 00:10:39;;;;;;;6.72;5.90;;;14.60;99.90;;;;;;4976445;28;20047;-75
2022/09/09 00:13:27;;;;;;;10.70;5.82;;;14.60;99.90;;;;;;4976650;28;20130;-75
2022/09/09 00:16:10;;;;;;;8.60;5.85;;;14.50;99.90;;;;;;4959247;28;20047;-75
2022/09/09 00:18:50;;;;;;;8.03;6.20;;;14.50;99.90;;;;;;4975224;28;20062;-74
2022/09/09 00:21:17;;;;;;;7.30;5.65;;;14.50;99.90;;;;;;4976872;28;20050;-74
2022/09/09 00:23:55;;;;;;;7.18;6.15;;;14.50;99.90;;;;;;4976469;28;20057;-74
2022/09/09 00:26:52;;;;;;;10.20;6.80;;;14.50;99.90;;;;;;4976291;28;20046;-73
2022/09/09 00:29:37;;;;;;;7.00;5.80;;;14.40;99.90;;;;;;4976620;28;20050;-74
2022/09/09 00:32:13;;;;;;;8.68;6.90;;;14.50;99.90;;;;;;4976557;28;20101;-75
2022/09/09 00:34:58;;;;;;;11.35;7.22;;;14.40;99.90;;;;;;4976106;28;20459;-75
2022/09/09 00:37:26;;;;;;;9.35;7.63;;;14.40;99.90;;;;;;4975852;28;20534;-75
2022/09/09 00:39:57;;;;;;;8.70;6.07;;;14.40;99.90;;;;;;4976481;28;20055;-75
2022/09/09 00:42:38;;;;;;;11.50;7.05;;;14.40;99.90;;;;;;4975675;28;20472;-73
2022/09/09 00:45:45;;;;;;;6.30;5.35;;;14.40;99.90;;;;;;4975899;28;20498;-74
2022/09/09 00:48:16;;;;;;;7.15;5.65;;;14.40;99.90;;;;;;4956837;28;20059;-75
2022/09/09 00:50:56;;;;;;;10.00;6.05;;;14.40;99.90;;;;;;4976161;28;20486;-75
2022/09/09 00:53:53;;;;;;;8.70;6.43;;;14.40;99.90;;;;;;4975854;28;20043;-74
2022/09/09 00:56:26;;;;;;;8.73;7.30;;;14.30;99.90;;;;;;4976259;28;20054;-74
2022/09/09 00:58:58;;;;;;;10.33;6.30;;;14.30;99.90;;;;;;4976018;28;20082;-75
2022/09/09 01:01:23;;;;;;;8.25;7.10;;;14.30;99.90;;;;;;4975356;28;20800;-75
2022/09/09 01:03:59;;;;;;;8.68;6.85;;;14.30;99.90;;;;;;4975847;28;20051;-75
2022/09/09 01:06:33;;;;;;;10.23;7.55;;;14.30;99.90;;;;;;4975828;28;20050;-76
2022/09/09 01:09:05;;;;;;;10.10;7.22;;;14.30;99.90;;;;;;4975507;28;20086;-75
2022/09/09 01:11:31;;;;;;;8.10;6.40;;;14.30;99.90;;;;;;4975486;28;20483;-74
2022/09/09 01:14:09;;;;;;;12.25;6.63;;;14.20;99.90;;;;;;4975412;28;20059;-75
2022/09/09 01:16:36;;;;;;;11.25;7.25;;;14.30;99.90;;;;;;4975675;28;20122;-75
2022/09/09 01:19:05;;;;;;;7.18;6.43;;;14.20;99.90;;;;;;4975394;28;20107;-74
2022/09/09 01:21:40;;;;;;;8.50;6.40;;;14.20;99.90;;;;;;4975380;28;20105;-74
2022/09/09 01:24:31;;;;;;;13.88;7.70;;;14.30;99.90;;;;;;4975427;28;20043;-74
2022/09/09 01:27:00;;;;;;;9.85;7.00;;;14.20;99.90;;;;;;4974291;28;20172;-73
2022/09/09 01:29:26;;;;;;;10.27;7.28;;;14.20;99.90;;;;;;4975094;28;20061;-74
2022/09/09 01:32:22;;;;;;;9.85;6.75;;;14.20;99.90;;;;;;4974755;28;20142;-74
2022/09/09 01:34:48;;;;;;;13.32;7.07;;;14.20;99.90;;;;;;4975651;28;20130;-75
2022/09/09 01:37:13;;;;;;;10.40;6.50;;;14.10;99.90;;;;;;4975594;28;20487;-74
2022/09/09 01:39:43;;;;;;;10.52;7.47;;;14.10;99.90;;;;;;4974972;28;20500;-75
2022/09/09 01:42:11;;;;;;;12.05;7.45;;;14.10;99.90;;;;;;4975210;28;20054;-74
2022/09/09 01:44:38;;;;;;;10.27;6.68;;;14.10;99.90;;;;;;4973836;28;20050;-74
2022/09/09 01:47:05;;;;;;;10.50;6.43;;;14.10;99.90;;;;;;4974929;28;20149;-75
2022/09/09 01:49:32;;;;;;;8.25;6.28;;;14.10;99.90;;;;;;4974530;28;20408;-74
2022/09/09 01:51:58;;;;;;;10.13;7.30;;;14.10;99.90;;;;;;4974590;28;20047;-75
2022/09/09 01:54:29;;;;;;;7.72;6.88;;;14.10;99.90;;;;;;4977420;28;20073;-75
2022/09/09 01:57:08;;;;;;;10.27;6.78;;;14.10;99.90;;;;;;4975989;28;20039;-75
2022/09/09 02:00:09;;;;;;;9.40;7.25;;;14.10;99.90;;;;;;4975735;28;20051;-75
2022/09/09 02:03:03;;;;;;;9.70;7.13;;;14.10;99.90;;;;;;4976209;28;20046;-75
2022/09/09 02:05:39;;;;;;;8.35;7.55;;;14.10;99.90;;;;;;4977199;28;20034;-75
2022/09/09 02:08:33;;;;;;;12.05;7.50;;;14.10;99.90;;;;;;4974262;28;20059;-74
2022/09/09 02:11:07;;;;;;;11.57;7.47;;;14.20;99.90;;;;;;4967648;28;20094;-74
2022/09/09 02:13:36;;;;;;;10.35;7.10;;;14.20;99.90;;;;;;4976618;28;20049;-75
2022/09/09 02:16:05;;;;;;;11.13;7.07;;;14.20;99.90;;;;;;4974565;28;20047;-75
2022/09/09 02:18:46;;;;;;;13.10;6.85;;;14.20;99.90;;;;;;4974230;28;20101;-75
2022/09/09 02:21:13;;;;;;;11.25;7.40;;;14.20;99.90;;;;;;4974147;28;20066;-75
2022/09/09 02:23:42;;;;;;;8.65;6.70;;;14.30;99.90;;;;;;4974042;28;20062;-74
2022/09/09 02:26:10;;;;;;;9.57;6.68;;;14.30;99.90;;;;;;4974087;28;20466;-74
2022/09/09 02:28:38;;;;;;;11.07;6.78;;;14.30;99.90;;;;;;4974103;28;20090;-74
2022/09/09 02:31:05;;;;;;;12.35;7.95;;;14.30;99.90;;;;;;4974566;28;20050;-74
2022/09/09 02:33:36;;;;;;;11.48;7.38;;;14.40;99.90;;;;;;4974119;28;20078;-75
2022/09/09 02:36:06;;;;;;;10.88;7.20;;;14.40;99.90;;;;;;4974499;28;20047;-75
2022/09/09 02:38:39;;;;;;;11.25;7.25;;;14.40;99.90;;;;;;4974344;28;20414;-74
2022/09/09 02:41:06;;;;;;;8.20;6.10;;;14.40;99.90;;;;;;4973978;28;20109;-75
2022/09/09 02:43:35;;;;;;;11.73;7.07;;;14.40;99.90;;;;;;4973761;28;20198;-75
2022/09/09 02:46:27;;;;;;;10.05;6.45;;;14.40;99.90;;;;;;4973667;28;20050;-74
2022/09/09 02:49:36;;;;;;;8.10;6.68;;;14.40;99.90;;;;;;4973988;28;20062;-74
2022/09/09 02:52:05;;;;;;;9.27;6.57;;;14.50;99.90;;;;;;4973792;28;20495;-74
2022/09/09 02:54:37;;;;;;;10.20;7.03;;;14.50;99.90;;;;;;4973766;28;20050;-75
2022/09/09 02:57:11;;;;;;;10.25;6.85;;;14.50;99.90;;;;;;4972955;28;20105;-74
2022/09/09 02:59:38;;;;;;;10.48;6.55;;;14.60;99.90;;;;;;4956921;28;20425;-75
2022/09/09 03:02:04;;;;;;;9.13;6.28;;;14.60;99.90;;;;;;4973657;28;20107;-74
2022/09/09 03:04:31;;;;;;;9.35;6.70;;;14.60;99.90;;;;;;4973676;28;20046;-74
2022/09/09 03:06:58;;;;;;;9.48;5.63;;;14.60;99.90;;;;;;4973964;28;20495;-74
2022/09/09 03:09:23;;;;;;;10.30;6.47;;;14.60;99.90;;;;;;4977613;28;20042;-75
2022/09/09 03:11:50;;;;;;;8.40;5.57;;;14.70;99.90;;;;;;4974283;28;20049;-74
2022/09/09 03:14:16;;;;;;;9.02;6.32;;;14.70;99.90;;;;;;4973458;28;20069;-74
2022/09/09 03:16:42;;;;;;;6.25;5.10;;;14.70;99.90;;;;;;4973757;28;20090;-74
2022/09/09 03:19:09;;;;;;;8.40;5.40;;;14.70;99.90;;;;;;4973326;28;20051;-74
2022/09/09 03:21:35;;;;;;;7.80;5.68;;;14.70;99.90;;;;;;4974049;28;20093;-74
2022/09/09 03:24:03;;;;;;;7.63;4.90;;;14.70;99.90;;;;;;4973427;28;20082;-74
2022/09/09 03:26:30;;;;;;;7.20;5.40;;;14.70;99.90;;;;;;4956634;28;20130;-74
2022/09/09 03:28:56;;;;;;;7.95;4.75;;;14.80;99.90;;;;;;4973019;28;20543;-73
2022/09/09 03:31:22;;;;;;;8.00;4.95;;;14.80;99.90;;;;;;4973283;28;20208;-73
2022/09/09 03:33:47;;;;;;;5.57;4.28;;;14.80;99.90;;;;;;4974903;28;20139;-73
2022/09/09 03:36:14;;;;;;;6.65;4.70;;;14.80;99.90;;;;;;4977173;28;20039;-73
2022/09/09 03:38:41;;;;;;;6.53;4.60;;;14.80;99.90;;;;;;4977347;28;20062;-73
2022/09/09 03:41:07;;;;;;;10.10;5.32;;;14.90;99.90;;;;;;4977091;28;20483;-73
2022/09/09 03:43:33;;;;;;;10.48;5.25;;;14.90;99.90;;;;;;4976957;28;20055;-73
2022/09/09 03:45:59;;;;;;;10.95;5.63;;;14.90;99.90;;;;;;4976204;28;20059;-73
2022/09/09 03:48:27;;;;;;;7.28;5.20;;;14.90;99.90;;;;;;4976798;28;20062;-73
2022/09/09 03:50:55;;;;;;;9.73;4.65;;;14.90;99.90;;;;;;4977314;28;20134;-73
2022/09/09 03:53:24;;;;;;;7.15;4.60;;;14.90;99.90;;;;;;4976864;28;20046;-73
2022/09/09 03:55:54;;;;;;;4.53;4.00;;;15.00;99.90;;;;;;4977147;28;20070;-74
2022/09/09 03:58:21;;;;;;;9.30;5.00;;;15.00;99.90;;;;;;4976811;28;20062;-75
2022/09/09 04:01:13;;;;;;;7.30;4.47;;;15.00;99.90;;;;;;4977115;28;20113;-74
2022/09/09 04:03:40;;;;;;;7.35;4.38;;;15.00;99.90;;;;;;4974000;28;20062;-74
2022/09/09 04:06:07;;;;;;;5.30;4.03;;;15.00;99.90;;;;;;4976633;28;20459;-74
2022/09/09 04:08:35;;;;;;;5.05;3.80;;;15.00;99.90;;;;;;4976720;28;20069;-73
2022/09/09 04:11:05;;;;;;;6.55;3.60;;;15.00;99.90;;;;;;4976368;28;20504;-74
2022/09/09 04:13:30;;;;;;;4.60;3.28;;;15.00;99.90;;;;;;4976792;28;20051;-74
2022/09/09 04:16:00;;;;;;;3.85;2.85;;;14.90;99.90;;;;;;4976754;28;20101;-74
2022/09/09 04:18:28;;;;;;;5.78;3.63;;;15.00;99.90;;;;;;4976822;28;20082;-73
2022/09/09 04:20:56;;;;;;;4.05;2.80;;;15.00;99.90;;;;;;4976907;28;20078;-74
2022/09/09 04:23:24;;;;;;;5.97;2.45;;;14.90;99.90;;;;;;4976795;28;20101;-73
2022/09/09 04:25:53;;;;;;;3.60;3.30;;;14.90;99.90;;;;;;4976459;28;20081;-74
2022/09/09 04:28:21;;;;;;;4.60;2.95;;;14.90;99.90;;;;;;4974968;28;20046;-73
2022/09/09 04:30:46;;;;;;;3.95;3.03;;;14.90;99.90;;;;;;4976200;28;20122;-73
2022/09/09 04:33:14;;;;;;;5.70;3.63;;;14.90;99.90;;;;;;4976456;28;20082;-74
2022/09/09 04:35:44;;;;;;;5.82;4.30;;;14.90;99.90;;;;;;4976023;28;20045;-73
2022/09/09 04:38:10;;;;;;;6.45;3.80;;;14.90;99.90;;;;;;4976324;28;20097;-73
2022/09/09 04:40:36;;;;;;;33.88;4.22;;;14.90;99.90;;;;;;4975960;28;20051;-73
2022/09/09 04:43:06;;;;;;;6.32;3.95;;;14.90;99.90;;;;;;4975949;28;20042;-73
2022/09/09 04:45:33;;;;;;;4.72;3.78;;;14.90;99.90;;;;;;4975401;28;20101;-74
2022/09/09 04:47:59;;;;;;;5.35;4.03;;;14.90;99.90;;;;;;4974713;28;20167;-73
2022/09/09 04:50:25;;;;;;;7.78;4.30;;;14.80;99.90;;;;;;4975685;28;20475;-73
2022/09/09 04:52:51;;;;;;;9.40;5.45;;;14.80;99.90;;;;;;4975913;28;20062;-73
2022/09/09 04:55:16;;;;;;;8.10;4.47;;;14.80;99.90;;;;;;4976040;28;20449;-73
2022/09/09 04:57:42;;;;;;;7.18;5.03;;;14.80;99.90;;;;;;4976061;28;20122;-73
2022/09/09 05:00:10;;;;;;;6.90;4.10;;;14.80;99.90;;;;;;4976504;28;20050;-73
2022/09/09 05:02:39;;;;;;;6.07;4.40;;;14.80;99.90;;;;;;4976080;28;20140;-73
2022/09/09 05:05:06;;;;;;;5.93;4.50;;;14.80;99.90;;;;;;4975883;28;20043;-73
2022/09/09 05:07:31;;;;;;;7.78;6.15;;;14.80;99.90;;;;;;4975594;28;20043;-73
2022/09/09 05:09:57;;;;;;;7.70;4.85;;;14.80;99.90;;;;;;4975576;28;20058;-74
2022/09/09 05:12:25;;;;;;;7.25;5.78;;;14.80;99.90;;;;;;4975439;28;20066;-73
2022/09/09 05:14:51;;;;;;;8.70;5.60;;;14.80;99.90;;;;;;4975303;28;20047;-73
2022/09/09 05:17:17;;;;;;;7.90;6.38;;;14.70;99.90;;;;;;4975565;28;20055;-73
2022/09/09 05:19:43;;;;;;;10.57;7.22;;;14.60;99.90;;;;;;4975688;28;20046;-73
2022/09/09 05:22:11;;;;;;;10.63;7.70;;;14.80;99.90;;;;;;4975658;28;20118;-74
2022/09/09 05:24:37;;;;;;;7.40;5.97;;;14.70;99.90;;;;;;4975208;28;20105;-74
2022/09/09 05:27:05;;;;;;;8.65;7.43;;;14.70;99.90;;;;;;4975537;28;20062;-74
2022/09/09 05:29:33;;;;;;;9.70;6.50;;;14.70;99.90;;;;;;4975165;28;20047;-74
2022/09/09 05:31:59;;;;;;;9.23;7.00;;;14.70;99.90;;;;;;4975434;28;20134;-74
2022/09/09 05:34:25;;;;;;;7.45;5.88;;;14.70;99.90;;;;;;4975189;28;20058;-73
2022/09/09 05:36:52;;;;;;;8.73;6.57;;;14.70;99.90;;;;;;4975069;28;20050;-74
2022/09/09 05:39:18;;;;;;;8.70;6.45;;;14.70;99.90;;;;;;4975070;28;20051;-74
2022/09/09 05:41:44;;;;;;;10.82;7.47;;;14.70;99.90;;;;;;4975256;28;20116;-73
2022/09/09 05:44:09;;;;;;;10.70;6.95;;;14.70;99.90;;;;;;4974759;28;20493;-73
2022/09/09 05:46:35;;;;;;;9.57;6.20;;;14.70;99.90;;;;;;4974472;28;20059;-73
2022/09/09 05:49:02;;;;;;;11.77;7.25;;;14.70;99.90;;;;;;4974778;28;20055;-74
2022/09/09 05:51:32;;;;;;;13.52;7.93;;;14.70;99.90;;;;;;4974520;28;20047;-73
2022/09/09 05:53:58;;;;;;;8.38;6.25;;;14.70;99.90;;;;;;4974203;28;20046;-73
2022/09/09 05:56:26;;;;;;;9.15;6.43;;;14.70;99.90;;;;;;4973983;28;20057;-73
2022/09/09 05:58:53;;;;;;;9.70;5.70;;;14.70;99.90;;;;;;4974694;28;20062;-73
2022/09/09 06:01:20;;;;;;;9.80;7.10;;;14.70;99.90;;;;;;4974335;28;20055;-73
2022/09/09 06:03:49;;;;;;;10.77;6.22;;;14.70;99.90;;;;;;4974347;28;20098;-73
2022/09/09 06:06:20;;;;;;;7.65;5.63;;;14.70;99.90;;;;;;4974502;28;20197;-73
2022/09/09 06:08:46;;;;;;;8.02;5.75;;;14.80;99.90;;;;;;4974165;28;20118;-71
2022/09/09 06:11:15;;;;;;;8.68;5.93;;;14.80;99.90;;;;;;4957671;28;20425;-72
2022/09/09 06:13:54;;;;;;;8.00;6.32;;;14.80;99.90;;;;;;4974199;28;20097;-72
2022/09/09 06:16:26;;;;;;;8.32;6.13;;;14.80;99.90;;;;;;4970991;28;20059;-72
2022/09/09 06:18:56;;;;;;;8.68;5.10;;;14.80;99.90;;;;;;4972850;28;20086;-72
2022/09/09 06:21:30;;;;;;;8.73;6.00;;;14.90;99.90;;;;;;4941705;28;20109;-72
2022/09/09 06:23:58;;;;;;;8.73;6.07;;;14.90;99.90;;;;;;4957348;28;20134;-72
2022/09/09 06:26:36;;;;;;;9.63;6.50;;;14.90;99.90;;;;;;4973828;28;20134;-72
2022/09/09 06:29:12;;;;;;;6.18;4.80;;;15.00;99.90;;;;;;4926311;28;20055;-72
2022/09/09 06:32:03;;;;;;;10.90;6.78;;;15.00;99.90;;;;;;4973771;28;20134;-72
2022/09/09 06:34:49;;;;;;;11.55;6.68;;;15.00;99.90;;;;;;4972570;28;20054;-72
2022/09/09 06:37:26;;;;;;;8.40;5.80;;;15.10;99.90;;;;;;4973856;28;20057;-72
2022/09/09 06:39:52;;;;;;;7.68;5.53;;;15.20;99.90;;;;;;4941245;28;20505;-72
2022/09/09 06:42:18;;;;;;;8.13;5.40;;;15.20;99.90;;;;;;4941248;28;20058;-72
2022/09/09 06:45:06;;;;;;;9.45;4.97;;;15.40;99.90;;;;;;4959232;28;20178;-72
2022/09/09 06:47:33;;;;;;;8.95;5.28;;;15.40;99.90;;;;;;4955702;28;20054;-72
2022/09/09 06:50:19;;;;;;;6.05;4.93;;;15.50;99.90;;;;;;4943689;28;20050;-72
2022/09/09 06:52:48;;;;;;;9.88;5.80;;;15.50;99.90;;;;;;4972417;28;20495;-71
2022/09/09 06:55:16;;;;;;;8.63;5.65;;;15.70;99.90;;;;;;4972247;28;20097;-71
2022/09/09 06:57:48;;;;;;;9.18;5.72;;;15.70;99.90;;;;;;4940619;28;20051;-72
2022/09/09 07:00:14;;;;;;;7.78;5.50;;;15.90;99.90;;;;;;4972391;28;20046;-73
2022/09/09 07:02:57;;;;;;;8.93;5.63;;;15.80;99.90;;;;;;4940256;28;20055;-73
2022/09/09 07:05:37;;;;;;;6.88;5.13;;;15.90;99.90;;;;;;4972365;28;20057;-74
2022/09/09 07:08:05;;;;;;;9.90;4.80;;;15.90;99.90;;;;;;4924405;28;20078;-74
2022/09/09 07:10:41;;;;;;;7.53;4.95;;;15.90;99.90;;;;;;4941534;28;20104;-72
2022/09/09 07:13:07;;;;;;;6.57;5.22;;;15.90;99.90;;;;;;4925406;28;20050;-74
2022/09/09 07:15:39;;;;;;;5.28;3.85;;;15.90;99.90;;;;;;4924762;28;20043;-72
2022/09/09 07:18:14;;;;;;;7.93;5.03;;;16.10;99.90;;;;;;4956950;28;20081;-72
2022/09/09 07:20:41;;;;;;;6.90;4.45;;;16.10;99.90;;;;;;4972792;28;20043;-72
2022/09/09 07:23:09;;;;;;;7.93;5.30;;;16.20;99.90;;;;;;4955979;28;20058;-70
2022/09/09 07:25:36;;;;;;;8.75;4.80;;;16.40;99.90;;;;;;4941664;28;20117;-73
2022/09/09 07:28:05;;;;;;;9.23;4.63;;;16.50;99.90;;;;;;4926485;28;20054;-72
2022/09/09 07:30:41;;;;;;;6.53;4.50;;;16.70;99.90;;;;;;4927893;28;20090;-72
2022/09/09 07:33:07;;;;;;;9.32;5.28;;;16.80;99.90;;;;;;4942550;28;20051;-72
2022/09/09 07:35:39;;;;;;;9.05;4.18;;;16.90;99.90;;;;;;4956648;28;20534;-73
2022/09/09 07:38:06;;;;;;;6.65;4.30;;;17.00;99.90;;;;;;4957653;28;20058;-73
2022/09/09 07:40:33;;;;;;;11.18;4.40;;;17.20;99.90;;;;;;4957583;28;20047;-73
2022/09/09 07:43:00;;;;;;;6.45;4.50;;;17.50;99.90;;;;;;4925627;28;20098;-72
2022/09/09 07:45:34;;;;;;;5.60;4.00;;;17.60;99.90;;;;;;4957964;28;20042;-72
2022/09/09 07:48:01;;;;;;;7.22;4.60;;;17.50;99.90;;;;;;4953701;29;20074;-73
2022/09/09 07:50:30;;;;;;;8.77;4.05;;;17.50;99.90;;;;;;4937512;29;20051;-73
2022/09/09 07:53:04;;;;;;;7.32;4.70;;;17.70;99.90;;;;;;4952820;29;20095;-73
2022/09/09 07:55:30;;;;;;;7.32;3.95;;;17.60;99.90;;;;;;4939404;29;20373;-72
2022/09/09 07:57:56;;;;;;;8.05;4.72;;;17.60;99.90;;;;;;4921423;29;20050;-72
2022/09/09 08:00:28;;;;;;;7.60;3.67;;;17.70;99.90;;;;;;4937111;29;20043;-73
2022/09/09 08:03:06;;;;;;;8.20;3.45;;;17.80;99.90;;;;;;4924375;29;20051;-73
2022/09/09 08:05:39;;;;;;;8.70;5.38;;;17.90;99.90;;;;;;4921062;29;20039;-72
2022/09/09 08:08:11;;;;;;;5.28;3.95;;;17.70;99.90;;;;;;4938281;29;20501;-73
2022/09/09 08:10:37;;;;;;;8.05;3.45;;;18.30;99.90;;;;;;4937187;29;20075;-73
2022/09/09 08:13:03;;;;;;;7.95;3.80;;;19.10;99.90;;;;;;4920879;29;20062;-74
2022/09/09 08:15:30;;;;;;;5.57;3.80;;;20.10;99.90;;;;;;4934706;29;20051;-73
2022/09/09 08:17:56;;;;;;;5.65;4.03;;;20.50;99.90;;;;;;4921592;29;20502;-73
2022/09/09 08:20:23;;;;;;;4.53;3.17;;;20.80;99.90;;;;;;4923696;29;20062;-73
2022/09/09 08:22:49;;;;;;;5.65;3.47;;;21.30;99.90;;;;;;4940191;29;20482;-73
2022/09/09 08:25:31;;;;;;;5.68;3.17;;;21.60;99.90;;;;;;4942092;29;20494;-73
2022/09/09 08:27:58;;;;;;;5.32;3.05;;;21.20;99.90;;;;;;4924526;29;20065;-73
2022/09/09 08:30:24;;;;;;;5.10;3.30;;;20.80;99.90;;;;;;4957645;29;20058;-73
2022/09/09 08:32:51;;;;;;;5.05;3.35;;;20.70;99.90;;;;;;4940513;29;20126;-73
2022/09/09 08:35:19;;;;;;;7.10;3.22;;;20.40;99.90;;;;;;4940479;29;20122;-73
2022/09/09 08:37:46;;;;;;;4.78;3.50;;;20.00;99.90;;;;;;4924681;29;20116;-73
2022/09/09 08:40:41;;;;;;;4.15;3.03;;;19.70;99.90;;;;;;4951705;29;20191;-73
2022/09/09 08:43:19;;;;;;;5.05;3.13;;;19.50;99.90;;;;;;4956104;29;20509;-72
2022/09/09 08:46:07;;;;;;;3.17;2.88;;;19.40;99.90;;;;;;4956459;28;20043;-73
2022/09/09 08:49:05;;;;;;;6.70;4.25;;;19.30;99.90;;;;;;4939369;29;20063;-72
2022/09/09 08:51:33;;;;;;;5.40;3.60;;;19.40;99.90;;;;;;4959548;28;20047;-72
2022/09/09 08:54:02;;;;;;;5.18;3.63;;;19.40;99.90;;;;;;4924081;29;20051;-72
2022/09/09 08:56:35;;;;;;;7.28;3.95;;;19.70;99.90;;;;;;4923916;29;20519;-72
2022/09/09 08:59:03;;;;;;;5.15;3.75;;;20.00;99.90;;;;;;4972599;28;20376;-73
2022/09/09 09:01:40;;;;;;;4.57;3.67;;;20.50;99.90;;;;;;4924649;29;20058;-72
2022/09/09 09:04:13;;;;;;;5.45;3.22;;;20.30;99.90;;;;;;4939744;29;20564;-72
2022/09/09 09:07:20;;;;;;;8.35;3.92;;;20.40;99.90;;;;;;4955712;29;20051;-72
2022/09/09 09:10:25;;;;;;;5.85;3.58;;;20.70;99.90;;;;;;4955983;29;20062;-72
2022/09/09 09:12:51;;;;;;;3.85;3.53;;;21.30;99.90;;;;;;4954856;29;20086;-72
2022/09/09 09:15:41;;;;;;;7.35;3.40;;;21.70;99.90;;;;;;4971595;28;20078;-72
2022/09/09 09:18:12;;;;;;;4.93;3.53;;;22.00;99.90;;;;;;4971397;28;20134;-72
2022/09/09 09:21:07;;;;;;;5.97;3.80;;;22.00;99.90;;;;;;4940232;29;20050;-72
2022/09/09 09:23:57;;;;;;;6.20;3.70;;;21.70;99.90;;;;;;4955281;29;20055;-72
2022/09/09 09:26:30;;;;;;;4.03;3.40;;;21.90;99.90;;;;;;4941971;29;20447;-72
2022/09/09 09:28:59;;;;;;;8.05;3.70;;;21.90;99.90;;;;;;4924643;29;20070;-72
2022/09/09 09:31:26;;;;;;;6.90;3.20;;;22.10;99.90;;;;;;4953314;28;20150;-72
2022/09/09 09:34:08;;;;;;;9.10;3.53;;;22.10;99.90;;;;;;4955173;29;20550;-72
2022/09/09 09:36:39;;;;;;;5.22;4.20;;;22.30;99.90;;;;;;4939266;29;20047;-73
2022/09/09 09:39:09;;;;;;;6.57;3.63;;;22.70;99.90;;;;;;4955171;29;20431;-73
2022/09/09 09:41:42;;;;;;;3.05;2.67;;;23.60;99.90;;;;;;4955085;28;20210;-73
2022/09/09 09:44:28;;;;;;;;;;;24.30;99.90;;;;;;4955506;29;20055;-73
2022/09/09 09:47:34;;;;;;;7.78;2.97;;;24.50;99.30;;;;;;4956998;28;19923;-73
2022/09/09 09:50:02;;;;;;;6.47;2.75;;;24.90;99.90;;;;;;4958585;28;20051;-73
2022/09/09 09:52:31;;;;;;;7.13;2.90;;;24.40;99.90;;;;;;4974028;28;20043;-73
2022/09/09 09:55:03;;;;;;;3.15;2.28;;;23.90;99.90;;;;;;4973981;28;20042;-73
2022/09/09 09:57:32;;;;;;;5.70;2.92;;;23.10;99.90;;;;;;4957856;28;20379;-73
2022/09/09 10:00:21;;;;;;;6.30;2.97;;;22.50;99.90;;;;;;4973457;28;20065;-73
2022/09/09 10:02:51;;;;;;;4.55;2.65;;;22.60;99.90;;;;;;4974095;28;20066;-73
2022/09/09 10:05:30;;;;;;;7.65;2.72;;;23.20;99.90;;;;;;4958758;28;20446;-73
2022/09/09 10:08:17;;;;;;;5.38;2.97;;;23.90;99.90;;;;;;4957942;28;20051;-73
2022/09/09 10:11:14;;;;;;;4.55;2.35;;;24.50;99.90;;;;;;4972080;28;20074;-73
2022/09/09 10:14:00;;;;;;;8.70;3.70;;;25.10;99.90;;;;;;4957823;28;20134;-73
2022/09/09 10:16:41;;;;;;;8.27;2.53;;;24.30;99.90;;;;;;4957201;28;20062;-73
2022/09/09 10:19:33;;;;;;;3.15;2.30;;;23.70;99.90;;;;;;4957299;28;20055;-73
2022/09/09 10:22:15;;;;;;;5.45;2.50;;;23.60;99.90;;;;;;4936314;28;20601;-73
2022/09/09 10:25:05;;;;;;;9.68;3.10;;;23.20;99.90;;;;;;4957708;28;20513;-73
2022/09/09 10:28:07;;;;;;;5.63;2.40;;;22.50;99.90;;;;;;4956987;28;20125;-73
2022/09/09 10:30:48;;;;;;;4.78;1.80;;;22.10;99.90;;;;;;4957309;28;20459;-73
2022/09/09 10:33:34;;;;;;;3.60;1.67;;;22.50;99.90;;;;;;4957900;28;20051;-73
2022/09/09 10:36:23;;;;;;;6.60;2.38;;;22.80;99.90;;;;;;4956955;28;20086;-76
2022/09/09 10:39:03;;;;;;;5.00;2.08;;;22.40;99.90;;;;;;4957756;28;20047;-77
2022/09/09 10:42:02;;;;;;;2.38;1.77;;;22.10;99.90;;;;;;4957327;28;20181;-76
2022/09/09 10:44:54;;;;;;;3.08;1.50;;;22.90;99.90;;;;;;4945275;28;20054;-78
2022/09/09 10:48:01;;;;;;;1.65;1.55;;;23.40;99.90;;;;;;4972490;28;20082;-76
2022/09/09 10:50:56;;;;;;;4.65;1.85;;;23.60;99.60;;;;;;4974165;28;20065;-83
2022/09/09 10:54:03;;;;;;;3.35;1.73;;;23.40;99.90;;;;;;4973342;28;20068;-80
2022/09/09 10:56:56;;;;;;;8.75;2.22;;;23.20;99.90;;;;;;4973421;28;20047;-80
2022/09/09 10:59:44;;;;;;;4.75;2.60;;;22.70;99.90;;;;;;4957141;28;20050;-82
2022/09/09 11:02:19;;;;;;;4.03;1.90;;;22.50;99.90;;;;;;4974284;28;20086;-80
2022/09/09 11:04:55;;;;;;;5.18;1.90;;;22.20;99.90;;;;;;4956175;28;20137;-78
2022/09/09 11:07:33;;;;;;;3.75;2.15;;;22.20;99.90;;;;;;4955981;28;20448;-79
2022/09/09 11:10:07;;;;;;;2.90;2.00;;;22.30;99.90;;;;;;4957081;28;20077;-77
2022/09/09 11:12:36;;;;;;;4.05;1.45;;;22.30;99.90;;;;;;4973054;28;20054;-76
2022/09/09 11:15:39;;;;;;;3.80;1.88;;;22.40;99.90;;;;;;4956839;28;20130;-77
2022/09/09 11:18:11;;;;;;;5.70;1.98;;;22.40;99.90;;;;;;4956476;28;20053;-76
2022/09/09 11:20:48;;;;;;;3.55;2.20;;;22.60;99.90;;;;;;4956851;28;20097;-80
2022/09/09 11:23:40;;;;;;;3.58;1.90;;;22.70;99.90;;;;;;4972124;28;20445;-78
2022/09/09 11:26:08;;;;;;;3.03;1.58;;;22.50;99.90;;;;;;4956136;28;20063;-76
2022/09/09 11:29:18;;;;;;;4.53;2.05;;;22.50;99.90;;;;;;4956757;28;20110;-76
2022/09/09 11:32:21;;;;;;;3.67;1.95;;;22.60;99.90;;;;;;4945544;28;20059;-74
2022/09/09 11:35:32;;;;;;;2.45;1.70;;;22.80;99.90;;;;;;4972724;28;20050;-75
2022/09/09 11:38:35;;;;;;;4.82;1.80;;;22.90;99.90;;;;;;4948587;28;20062;-74
2022/09/09 11:41:06;;;;;;;4.70;1.70;;;22.70;99.90;;;;;;4956455;28;20049;-76
2022/09/09 11:43:53;;;;;;;4.32;2.08;;;22.70;99.90;;;;;;4956448;28;20127;-75
2022/09/09 11:46:33;;;;;;;2.92;1.77;;;22.80;99.90;;;;;;4956052;28;20058;-75
2022/09/09 11:49:27;;;;;;;3.47;1.40;;;22.70;99.90;;;;;;4952835;29;20055;-75
2022/09/09 11:51:54;;;;;;;3.00;1.63;;;22.40;99.30;;;;;;4954011;29;20090;-75
2022/09/09 11:54:31;;;;;;;3.28;1.40;;;22.30;99.90;;;;;;4953440;28;20059;-77
2022/09/09 11:56:58;;;;;;;3.13;2.40;;;22.10;99.90;;;;;;4940601;29;20046;-75
2022/09/09 11:59:38;;;;;;;5.05;1.70;;;22.20;99.90;;;;;;4956527;29;20480;-76
2022/09/09 12:02:31;;;;;;;3.65;1.77;;;22.10;99.90;;;;;;4973020;28;20125;-75
2022/09/09 12:05:19;;;;;;;2.72;1.50;;;22.30;99.90;;;;;;4958283;29;20051;-76
2022/09/09 12:07:59;;;;;;;3.13;1.90;;;22.60;99.90;;;;;;4957628;28;20070;-75
2022/09/09 12:10:52;;;;;;;5.35;1.70;;;22.90;99.90;;;;;;4938692;29;20177;-75
2022/09/09 12:13:19;;;;;;;3.00;1.65;;;22.70;99.40;;;;;;4972264;28;20047;-81
2022/09/09 12:15:53;;;;;;;6.90;1.85;;;22.70;99.90;;;;;;4940034;29;20142;-77
2022/09/09 12:18:45;;;;;;;2.90;1.65;;;22.70;99.90;;;;;;4956897;29;20106;-80
2022/09/09 12:21:43;;;;;;;2.58;1.80;;;22.50;99.90;;;;;;4941391;29;20082;-78
2022/09/09 12:24:55;;;;;;;4.45;2.30;;;22.50;99.90;;;;;;4955402;29;20086;-78
2022/09/09 12:27:35;;;;;;;6.28;1.80;;;22.40;99.30;;;;;;4951534;29;20464;-80
2022/09/09 12:30:15;;;;;;;3.38;2.78;;;22.40;99.90;;;;;;4957824;29;20051;-76
2022/09/09 12:32:44;;;;;;;12.60;1.98;;;22.30;99.90;;;;;;4956416;29;20047;-80
2022/09/09 12:35:27;;;;;;;4.28;1.48;;;22.40;99.90;;;;;;4924505;29;20066;-80
2022/09/09 12:38:01;;;;;;;4.57;1.63;;;22.40;99.90;;;;;;4972215;28;20055;-80
2022/09/09 12:40:36;;;;;;;5.18;1.85;;;22.50;99.90;;;;;;4941404;29;20058;-79
2022/09/09 12:43:24;;;;;;;2.10;1.40;;;22.70;99.90;;;;;;4939682;29;20399;-78
2022/09/09 12:46:10;;;;;;;3.58;1.80;;;22.70;99.90;;;;;;4940668;29;20441;-76
2022/09/09 12:48:41;;;;;;;2.22;1.48;;;22.60;99.90;;;;;;4955508;29;20059;-78
2022/09/09 12:51:26;;;;;;;3.80;1.50;;;22.50;99.90;;;;;;4939999;29;20460;-78
2022/09/09 12:53:53;;;;;;;3.92;1.90;;;22.50;99.90;;;;;;4924553;29;20051;-75
2022/09/09 12:56:31;;;;;;;7.35;1.90;;;22.50;99.90;;;;;;4940288;29;20047;-78
2022/09/09 12:59:03;;;;;;;2.88;1.98;;;22.50;99.90;;;;;;4956018;29;20118;-78
2022/09/09 13:01:34;;;;;;;3.35;1.70;;;22.50;99.90;;;;;;4924084;29;20047;-79
2022/09/09 13:04:21;;;;;;;3.40;1.52;;;22.50;99.90;;;;;;4939568;29;20082;-78
2022/09/09 13:06:49;;;;;;;3.60;1.30;;;22.50;99.90;;;;;;4971691;28;20073;-80
2022/09/09 13:09:21;;;;;;;4.57;1.73;;;22.50;99.90;;;;;;4953985;29;20094;-77
2022/09/09 13:11:58;;;;;;;5.03;2.10;;;22.80;99.90;;;;;;4971327;28;20066;-76
2022/09/09 13:14:43;;;;;;;2.92;1.55;;;23.00;99.90;;;;;;4955184;29;20055;-76
2022/09/09 13:17:40;;;;;;;3.08;1.38;;;23.10;99.90;;;;;;4955247;29;20053;-77
2022/09/09 13:20:20;;;;;;;3.33;1.40;;;22.80;98.20;;;;;;4939960;29;20051;-78
2022/09/09 13:23:26;;;;;;;2.97;2.00;;;22.80;99.70;;;;;;4955086;29;20410;-76
2022/09/09 13:26:07;;;;;;;2.53;1.33;;;22.80;99.90;;;;;;4955164;29;20054;-78
2022/09/09 13:28:34;;;;;;;3.58;1.48;;;22.70;99.90;;;;;;4939099;29;20048;-75